sensor_id;sensor_type;location;lat;lon;timestamp;P1;durP1;ratioP1;P2;durP2;ratioP2
10277;SDS011;5184;51.376;7.148;2023-08-20T00:02:03;9.63;;;8.60;;
10277;SDS011;5184;51.376;7.148;2023-08-20T00:04:30;12.93;;;9.37;;
10277;SDS011;5184;51.376;7.148;2023-08-20T00:06:57;10.67;;;9.47;;
10277;SDS011;5184;51.376;7.148;2023-08-20T00:09:24;9.87;;;8.87;;
10277;SDS011;5184;51.376;7.148;2023-08-20T00:11:50;10.73;;;9.70;;
10277;SDS011;5184;51.376;7.148;2023-08-20T00:14:17;12.77;;;10.20;;
10277;SDS011;5184;51.376;7.148;2023-08-20T00:16:44;12.37;;;10.80;;
10277;SDS011;5184;51.376;7.148;2023-08-20T00:19:10;11.90;;;10.70;;
10277;SDS011;5184;51.376;7.148;2023-08-20T00:21:41;11.17;;;10.03;;
10277;SDS011;5184;51.376;7.148;2023-08-20T00:24:08;10.43;;;9.40;;
10277;SDS011;5184;51.376;7.148;2023-08-20T00:26:35;9.77;;;8.77;;
10277;SDS011;5184;51.376;7.148;2023-08-20T00:29:01;11.27;;;9.60;;
10277;SDS011;5184;51.376;7.148;2023-08-20T00:31:28;11.33;;;9.53;;
10277;SDS011;5184;51.376;7.148;2023-08-20T00:33:55;11.53;;;10.43;;
10277;SDS011;5184;51.376;7.148;2023-08-20T00:36:22;11.67;;;10.47;;
10277;SDS011;5184;51.376;7.148;2023-08-20T00:38:49;11.23;;;10.03;;
10277;SDS011;5184;51.376;7.148;2023-08-20T00:41:15;13.07;;;9.87;;
10277;SDS011;5184;51.376;7.148;2023-08-20T00:43:42;11.30;;;10.03;;
10277;SDS011;5184;51.376;7.148;2023-08-20T00:46:08;11.50;;;10.40;;
10277;SDS011;5184;51.376;7.148;2023-08-20T00:48:35;12.57;;;10.00;;
10277;SDS011;5184;51.376;7.148;2023-08-20T00:51:02;11.70;;;10.53;;
10277;SDS011;5184;51.376;7.148;2023-08-20T00:53:29;11.47;;;10.33;;
10277;SDS011;5184;51.376;7.148;2023-08-20T00:55:56;12.07;;;10.60;;
10277;SDS011;5184;51.376;7.148;2023-08-20T00:58:23;11.43;;;10.33;;
10277;SDS011;5184;51.376;7.148;2023-08-20T01:00:50;11.43;;;10.33;;
10277;SDS011;5184;51.376;7.148;2023-08-20T01:03:16;12.30;;;11.00;;
10277;SDS011;5184;51.376;7.148;2023-08-20T01:05:46;12.17;;;10.30;;
10277;SDS011;5184;51.376;7.148;2023-08-20T01:08:16;11.73;;;10.00;;
10277;SDS011;5184;51.376;7.148;2023-08-20T01:10:43;13.37;;;11.40;;
10277;SDS011;5184;51.376;7.148;2023-08-20T01:13:09;12.37;;;10.87;;
10277;SDS011;5184;51.376;7.148;2023-08-20T01:15:35;13.83;;;11.27;;
10277;SDS011;5184;51.376;7.148;2023-08-20T01:18:02;13.50;;;12.10;;
10277;SDS011;5184;51.376;7.148;2023-08-20T01:20:30;12.50;;;11.20;;
10277;SDS011;5184;51.376;7.148;2023-08-20T01:23:07;12.33;;;10.40;;
10277;SDS011;5184;51.376;7.148;2023-08-20T01:25:36;12.87;;;10.37;;
10277;SDS011;5184;51.376;7.148;2023-08-20T01:28:17;11.53;;;10.23;;
10277;SDS011;5184;51.376;7.148;2023-08-20T01:30:37;12.10;;;10.40;;
10277;SDS011;5184;51.376;7.148;2023-08-20T01:33:05;12.80;;;9.53;;
10277;SDS011;5184;51.376;7.148;2023-08-20T01:35:31;10.20;;;9.20;;
10277;SDS011;5184;51.376;7.148;2023-08-20T01:37:59;13.03;;;9.30;;
10277;SDS011;5184;51.376;7.148;2023-08-20T01:40:26;9.93;;;8.93;;
10277;SDS011;5184;51.376;7.148;2023-08-20T01:42:53;11.80;;;10.63;;
10277;SDS011;5184;51.376;7.148;2023-08-20T01:45:20;11.37;;;9.90;;
10277;SDS011;5184;51.376;7.148;2023-08-20T01:47:47;15.20;;;11.57;;
10277;SDS011;5184;51.376;7.148;2023-08-20T01:50:13;17.17;;;13.13;;
10277;SDS011;5184;51.376;7.148;2023-08-20T01:52:41;12.50;;;11.20;;
10277;SDS011;5184;51.376;7.148;2023-08-20T01:55:07;16.23;;;13.00;;
10277;SDS011;5184;51.376;7.148;2023-08-20T01:57:34;15.53;;;12.40;;
10277;SDS011;5184;51.376;7.148;2023-08-20T02:00:01;17.60;;;12.83;;
10277;SDS011;5184;51.376;7.148;2023-08-20T02:02:27;12.53;;;11.23;;
10277;SDS011;5184;51.376;7.148;2023-08-20T02:04:54;17.13;;;12.87;;
10277;SDS011;5184;51.376;7.148;2023-08-20T02:07:21;13.80;;;12.23;;
10277;SDS011;5184;51.376;7.148;2023-08-20T02:09:48;16.83;;;14.23;;
10277;SDS011;5184;51.376;7.148;2023-08-20T02:12:14;18.20;;;15.40;;
10277;SDS011;5184;51.376;7.148;2023-08-20T02:14:41;14.57;;;13.00;;
10277;SDS011;5184;51.376;7.148;2023-08-20T02:17:08;20.93;;;17.40;;
10277;SDS011;5184;51.376;7.148;2023-08-20T02:19:35;18.13;;;16.03;;
10277;SDS011;5184;51.376;7.148;2023-08-20T02:22:01;15.93;;;13.03;;
10277;SDS011;5184;51.376;7.148;2023-08-20T02:24:28;13.10;;;10.53;;
10277;SDS011;5184;51.376;7.148;2023-08-20T02:26:55;11.93;;;9.87;;
10277;SDS011;5184;51.376;7.148;2023-08-20T02:29:22;11.27;;;10.17;;
10277;SDS011;5184;51.376;7.148;2023-08-20T02:31:49;13.07;;;10.73;;
10277;SDS011;5184;51.376;7.148;2023-08-20T02:34:15;13.60;;;9.87;;
10277;SDS011;5184;51.376;7.148;2023-08-20T02:36:43;15.53;;;12.03;;
10277;SDS011;5184;51.376;7.148;2023-08-20T02:39:09;12.43;;;10.27;;
10277;SDS011;5184;51.376;7.148;2023-08-20T02:41:37;13.17;;;11.30;;
10277;SDS011;5184;51.376;7.148;2023-08-20T02:44:03;13.27;;;11.37;;
10277;SDS011;5184;51.376;7.148;2023-08-20T02:46:30;12.97;;;11.60;;
10277;SDS011;5184;51.376;7.148;2023-08-20T02:48:57;12.60;;;11.33;;
10277;SDS011;5184;51.376;7.148;2023-08-20T02:51:24;12.03;;;10.80;;
10277;SDS011;5184;51.376;7.148;2023-08-20T02:53:51;11.80;;;10.60;;
10277;SDS011;5184;51.376;7.148;2023-08-20T02:56:17;10.77;;;9.67;;
10277;SDS011;5184;51.376;7.148;2023-08-20T02:58:44;11.70;;;10.17;;
10277;SDS011;5184;51.376;7.148;2023-08-20T03:03:44;12.40;;;11.13;;
10277;SDS011;5184;51.376;7.148;2023-08-20T03:06:12;13.63;;;11.83;;
10277;SDS011;5184;51.376;7.148;2023-08-20T03:08:38;12.97;;;11.57;;
10277;SDS011;5184;51.376;7.148;2023-08-20T03:11:05;12.63;;;10.67;;
10277;SDS011;5184;51.376;7.148;2023-08-20T03:13:31;13.00;;;11.70;;
10277;SDS011;5184;51.376;7.148;2023-08-20T03:15:59;14.67;;;13.03;;
10277;SDS011;5184;51.376;7.148;2023-08-20T03:18:26;17.07;;;15.23;;
10277;SDS011;5184;51.376;7.148;2023-08-20T03:20:54;18.30;;;14.30;;
10277;SDS011;5184;51.376;7.148;2023-08-20T03:23:20;13.87;;;12.50;;
10277;SDS011;5184;51.376;7.148;2023-08-20T03:25:47;15.83;;;13.00;;
10277;SDS011;5184;51.376;7.148;2023-08-20T03:28:15;15.13;;;12.53;;
10277;SDS011;5184;51.376;7.148;2023-08-20T03:30:40;14.87;;;11.77;;
10277;SDS011;5184;51.376;7.148;2023-08-20T03:33:07;17.03;;;11.30;;
10277;SDS011;5184;51.376;7.148;2023-08-20T03:35:34;11.53;;;9.83;;
10277;SDS011;5184;51.376;7.148;2023-08-20T03:38:01;10.97;;;9.83;;
10277;SDS011;5184;51.376;7.148;2023-08-20T03:40:27;12.50;;;10.20;;
10277;SDS011;5184;51.376;7.148;2023-08-20T03:42:55;11.83;;;10.63;;
10277;SDS011;5184;51.376;7.148;2023-08-20T03:45:22;12.40;;;10.73;;
10277;SDS011;5184;51.376;7.148;2023-08-20T03:47:49;10.83;;;9.73;;
10277;SDS011;5184;51.376;7.148;2023-08-20T03:50:15;11.93;;;10.67;;
10277;SDS011;5184;51.376;7.148;2023-08-20T03:52:42;12.37;;;11.13;;
10277;SDS011;5184;51.376;7.148;2023-08-20T03:55:09;12.83;;;11.40;;
10277;SDS011;5184;51.376;7.148;2023-08-20T03:57:36;12.03;;;10.83;;
10277;SDS011;5184;51.376;7.148;2023-08-20T04:00:03;14.60;;;10.17;;
10277;SDS011;5184;51.376;7.148;2023-08-20T04:02:30;12.27;;;10.87;;
10277;SDS011;5184;51.376;7.148;2023-08-20T04:04:57;13.67;;;10.30;;
10277;SDS011;5184;51.376;7.148;2023-08-20T04:07:24;13.60;;;12.03;;
10277;SDS011;5184;51.376;7.148;2023-08-20T04:09:51;14.57;;;13.00;;
10277;SDS011;5184;51.376;7.148;2023-08-20T04:12:18;13.33;;;11.20;;
10277;SDS011;5184;51.376;7.148;2023-08-20T04:14:45;11.33;;;10.23;;
10277;SDS011;5184;51.376;7.148;2023-08-20T04:17:13;13.10;;;10.80;;
10277;SDS011;5184;51.376;7.148;2023-08-20T04:19:39;13.80;;;10.60;;
10277;SDS011;5184;51.376;7.148;2023-08-20T04:22:06;14.13;;;10.17;;
10277;SDS011;5184;51.376;7.148;2023-08-20T04:27:12;12.30;;;11.10;;
10277;SDS011;5184;51.376;7.148;2023-08-20T04:29:40;14.90;;;12.33;;
10277;SDS011;5184;51.376;7.148;2023-08-20T04:32:06;13.83;;;11.50;;
10277;SDS011;5184;51.376;7.148;2023-08-20T04:34:33;11.37;;;10.27;;
10277;SDS011;5184;51.376;7.148;2023-08-20T04:37:00;12.27;;;10.93;;
10277;SDS011;5184;51.376;7.148;2023-08-20T04:39:27;10.63;;;9.53;;
10277;SDS011;5184;51.376;7.148;2023-08-20T04:41:54;10.10;;;9.10;;
10277;SDS011;5184;51.376;7.148;2023-08-20T04:44:21;9.67;;;8.67;;
10277;SDS011;5184;51.376;7.148;2023-08-20T04:46:48;12.40;;;10.07;;
10277;SDS011;5184;51.376;7.148;2023-08-20T04:49:14;11.47;;;9.67;;
10277;SDS011;5184;51.376;7.148;2023-08-20T04:51:42;11.70;;;9.93;;
10277;SDS011;5184;51.376;7.148;2023-08-20T04:54:09;12.87;;;10.33;;
10277;SDS011;5184;51.376;7.148;2023-08-20T04:56:35;11.97;;;10.63;;
10277;SDS011;5184;51.376;7.148;2023-08-20T04:59:02;12.33;;;9.37;;
10277;SDS011;5184;51.376;7.148;2023-08-20T05:01:29;11.37;;;8.97;;
10277;SDS011;5184;51.376;7.148;2023-08-20T05:03:55;11.67;;;10.47;;
10277;SDS011;5184;51.376;7.148;2023-08-20T05:06:22;11.53;;;10.33;;
10277;SDS011;5184;51.376;7.148;2023-08-20T05:08:49;11.07;;;9.97;;
10277;SDS011;5184;51.376;7.148;2023-08-20T05:11:17;13.00;;;9.87;;
10277;SDS011;5184;51.376;7.148;2023-08-20T05:13:44;12.30;;;10.87;;
10277;SDS011;5184;51.376;7.148;2023-08-20T05:16:10;14.10;;;11.10;;
10277;SDS011;5184;51.376;7.148;2023-08-20T05:18:36;11.33;;;9.73;;
10277;SDS011;5184;51.376;7.148;2023-08-20T05:21:03;16.53;;;12.47;;
10277;SDS011;5184;51.376;7.148;2023-08-20T05:23:30;13.83;;;12.33;;
10277;SDS011;5184;51.376;7.148;2023-08-20T05:25:56;11.50;;;10.30;;
10277;SDS011;5184;51.376;7.148;2023-08-20T05:28:24;12.67;;;10.63;;
10277;SDS011;5184;51.376;7.148;2023-08-20T05:30:54;11.03;;;9.93;;
10277;SDS011;5184;51.376;7.148;2023-08-20T05:33:20;12.90;;;9.47;;
10277;SDS011;5184;51.376;7.148;2023-08-20T05:35:47;13.53;;;9.30;;
10277;SDS011;5184;51.376;7.148;2023-08-20T05:38:13;10.43;;;9.43;;
10277;SDS011;5184;51.376;7.148;2023-08-20T05:40:41;12.57;;;9.47;;
10277;SDS011;5184;51.376;7.148;2023-08-20T05:43:08;15.37;;;10.33;;
10277;SDS011;5184;51.376;7.148;2023-08-20T05:45:35;11.30;;;10.10;;
10277;SDS011;5184;51.376;7.148;2023-08-20T05:48:01;12.47;;;10.77;;
10277;SDS011;5184;51.376;7.148;2023-08-20T05:50:29;16.63;;;13.20;;
10277;SDS011;5184;51.376;7.148;2023-08-20T05:52:56;14.90;;;12.07;;
10277;SDS011;5184;51.376;7.148;2023-08-20T05:55:23;16.47;;;12.60;;
10277;SDS011;5184;51.376;7.148;2023-08-20T05:57:49;15.07;;;12.57;;
10277;SDS011;5184;51.376;7.148;2023-08-20T06:00:16;18.60;;;12.80;;
10277;SDS011;5184;51.376;7.148;2023-08-20T06:02:43;19.90;;;14.33;;
10277;SDS011;5184;51.376;7.148;2023-08-20T06:05:11;18.23;;;14.53;;
10277;SDS011;5184;51.376;7.148;2023-08-20T06:07:37;17.60;;;15.07;;
10277;SDS011;5184;51.376;7.148;2023-08-20T06:10:04;17.90;;;14.20;;
10277;SDS011;5184;51.376;7.148;2023-08-20T06:12:32;20.97;;;14.40;;
10277;SDS011;5184;51.376;7.148;2023-08-20T06:14:59;18.87;;;15.33;;
10277;SDS011;5184;51.376;7.148;2023-08-20T06:17:25;19.50;;;15.30;;
10277;SDS011;5184;51.376;7.148;2023-08-20T06:19:52;18.63;;;14.67;;
10277;SDS011;5184;51.376;7.148;2023-08-20T06:22:18;18.27;;;16.27;;
10277;SDS011;5184;51.376;7.148;2023-08-20T06:24:46;18.60;;;15.83;;
10277;SDS011;5184;51.376;7.148;2023-08-20T06:27:13;19.80;;;15.63;;
10277;SDS011;5184;51.376;7.148;2023-08-20T06:29:40;17.83;;;15.70;;
10277;SDS011;5184;51.376;7.148;2023-08-20T06:32:06;20.83;;;17.53;;
10277;SDS011;5184;51.376;7.148;2023-08-20T06:34:33;17.57;;;15.67;;
10277;SDS011;5184;51.376;7.148;2023-08-20T06:37:00;17.50;;;14.07;;
10277;SDS011;5184;51.376;7.148;2023-08-20T06:39:27;16.47;;;14.50;;
10277;SDS011;5184;51.376;7.148;2023-08-20T06:41:54;16.03;;;14.30;;
10277;SDS011;5184;51.376;7.148;2023-08-20T06:44:20;16.67;;;14.90;;
10277;SDS011;5184;51.376;7.148;2023-08-20T06:46:47;15.90;;;14.27;;
10277;SDS011;5184;51.376;7.148;2023-08-20T06:49:13;19.50;;;15.43;;
10277;SDS011;5184;51.376;7.148;2023-08-20T06:51:40;16.37;;;14.17;;
10277;SDS011;5184;51.376;7.148;2023-08-20T06:54:07;18.33;;;14.90;;
10277;SDS011;5184;51.376;7.148;2023-08-20T06:56:34;19.07;;;14.30;;
10277;SDS011;5184;51.376;7.148;2023-08-20T06:59:01;15.43;;;13.83;;
10277;SDS011;5184;51.376;7.148;2023-08-20T07:01:28;16.90;;;14.63;;
10277;SDS011;5184;51.376;7.148;2023-08-20T07:03:55;17.50;;;15.80;;
10277;SDS011;5184;51.376;7.148;2023-08-20T07:06:22;18.90;;;15.67;;
10277;SDS011;5184;51.376;7.148;2023-08-20T07:08:49;16.57;;;14.83;;
10277;SDS011;5184;51.376;7.148;2023-08-20T07:11:16;17.03;;;15.00;;
10277;SDS011;5184;51.376;7.148;2023-08-20T07:13:43;17.10;;;15.37;;
10277;SDS011;5184;51.376;7.148;2023-08-20T07:16:09;16.43;;;14.83;;
10277;SDS011;5184;51.376;7.148;2023-08-20T07:18:36;17.13;;;15.13;;
10277;SDS011;5184;51.376;7.148;2023-08-20T07:21:02;15.63;;;13.73;;
10277;SDS011;5184;51.376;7.148;2023-08-20T07:23:29;16.30;;;14.67;;
10277;SDS011;5184;51.376;7.148;2023-08-20T07:28:30;16.53;;;14.83;;
10277;SDS011;5184;51.376;7.148;2023-08-20T07:31:02;16.67;;;14.97;;
10277;SDS011;5184;51.376;7.148;2023-08-20T07:33:29;17.13;;;15.43;;
10277;SDS011;5184;51.376;7.148;2023-08-20T07:35:55;15.57;;;13.93;;
10277;SDS011;5184;51.376;7.148;2023-08-20T07:38:22;16.27;;;14.53;;
10277;SDS011;5184;51.376;7.148;2023-08-20T07:40:49;18.50;;;16.10;;
10277;SDS011;5184;51.376;7.148;2023-08-20T07:43:15;17.70;;;15.90;;
10277;SDS011;5184;51.376;7.148;2023-08-20T07:45:43;17.73;;;15.93;;
10277;SDS011;5184;51.376;7.148;2023-08-20T07:48:10;16.20;;;14.60;;
10277;SDS011;5184;51.376;7.148;2023-08-20T07:50:37;18.87;;;16.63;;
10277;SDS011;5184;51.376;7.148;2023-08-20T07:53:03;13.43;;;11.83;;
10277;SDS011;5184;51.376;7.148;2023-08-20T07:55:31;15.80;;;13.27;;
10277;SDS011;5184;51.376;7.148;2023-08-20T07:57:57;17.07;;;15.27;;
10277;SDS011;5184;51.376;7.148;2023-08-20T08:00:24;16.23;;;14.63;;
10277;SDS011;5184;51.376;7.148;2023-08-20T08:02:50;16.07;;;14.47;;
10277;SDS011;5184;51.376;7.148;2023-08-20T08:05:18;15.07;;;13.57;;
10277;SDS011;5184;51.376;7.148;2023-08-20T08:07:45;13.90;;;12.53;;
10277;SDS011;5184;51.376;7.148;2023-08-20T08:10:12;11.87;;;10.87;;
10277;SDS011;5184;51.376;7.148;2023-08-20T08:12:39;13.20;;;11.80;;
10277;SDS011;5184;51.376;7.148;2023-08-20T08:15:06;11.87;;;10.77;;
10277;SDS011;5184;51.376;7.148;2023-08-20T08:17:33;12.47;;;11.20;;
10277;SDS011;5184;51.376;7.148;2023-08-20T08:20:00;10.23;;;9.17;;
10277;SDS011;5184;51.376;7.148;2023-08-20T08:22:27;9.43;;;8.60;;
10277;SDS011;5184;51.376;7.148;2023-08-20T08:24:54;7.33;;;6.57;;
10277;SDS011;5184;51.376;7.148;2023-08-20T08:27:20;6.03;;;5.10;;
10277;SDS011;5184;51.376;7.148;2023-08-20T08:29:47;5.30;;;4.80;;
10277;SDS011;5184;51.376;7.148;2023-08-20T08:32:14;10.80;;;6.00;;
10277;SDS011;5184;51.376;7.148;2023-08-20T08:34:41;7.03;;;5.40;;
10277;SDS011;5184;51.376;7.148;2023-08-20T08:37:07;8.10;;;6.00;;
10277;SDS011;5184;51.376;7.148;2023-08-20T08:39:34;7.73;;;5.93;;
10277;SDS011;5184;51.376;7.148;2023-08-20T08:42:02;6.03;;;5.40;;
10277;SDS011;5184;51.376;7.148;2023-08-20T08:44:31;6.57;;;5.90;;
10277;SDS011;5184;51.376;7.148;2023-08-20T08:46:58;9.40;;;6.60;;
10277;SDS011;5184;51.376;7.148;2023-08-20T08:49:24;8.13;;;6.23;;
10277;SDS011;5184;51.376;7.148;2023-08-20T08:51:53;6.30;;;5.70;;
10277;SDS011;5184;51.376;7.148;2023-08-20T08:54:20;7.00;;;6.30;;
10277;SDS011;5184;51.376;7.148;2023-08-20T08:56:47;7.70;;;6.20;;
10277;SDS011;5184;51.376;7.148;2023-08-20T08:59:14;8.20;;;6.20;;
10277;SDS011;5184;51.376;7.148;2023-08-20T09:01:40;5.77;;;5.27;;
10277;SDS011;5184;51.376;7.148;2023-08-20T09:04:07;5.80;;;5.13;;
10277;SDS011;5184;51.376;7.148;2023-08-20T09:06:51;6.17;;;5.33;;
10277;SDS011;5184;51.376;7.148;2023-08-20T09:09:17;7.50;;;6.57;;
10277;SDS011;5184;51.376;7.148;2023-08-20T09:11:44;6.33;;;5.60;;
10277;SDS011;5184;51.376;7.148;2023-08-20T09:14:21;6.73;;;5.23;;
10277;SDS011;5184;51.376;7.148;2023-08-20T09:16:57;7.20;;;6.47;;
10277;SDS011;5184;51.376;7.148;2023-08-20T09:19:24;6.97;;;5.97;;
10277;SDS011;5184;51.376;7.148;2023-08-20T09:21:51;6.43;;;5.80;;
10277;SDS011;5184;51.376;7.148;2023-08-20T09:24:25;7.27;;;6.57;;
10277;SDS011;5184;51.376;7.148;2023-08-20T09:26:56;7.00;;;6.30;;
10277;SDS011;5184;51.376;7.148;2023-08-20T09:29:26;7.70;;;6.20;;
10277;SDS011;5184;51.376;7.148;2023-08-20T09:31:59;8.30;;;6.17;;
10277;SDS011;5184;51.376;7.148;2023-08-20T09:34:20;6.13;;;5.60;;
10277;SDS011;5184;51.376;7.148;2023-08-20T09:36:48;7.40;;;6.47;;
10277;SDS011;5184;51.376;7.148;2023-08-20T09:39:15;7.80;;;7.10;;
10277;SDS011;5184;51.376;7.148;2023-08-20T09:41:42;8.93;;;7.30;;
10277;SDS011;5184;51.376;7.148;2023-08-20T09:44:08;7.63;;;7.03;;
10277;SDS011;5184;51.376;7.148;2023-08-20T09:46:35;8.43;;;7.63;;
10277;SDS011;5184;51.376;7.148;2023-08-20T09:49:01;8.60;;;7.80;;
10277;SDS011;5184;51.376;7.148;2023-08-20T09:51:29;8.33;;;7.50;;
10277;SDS011;5184;51.376;7.148;2023-08-20T09:53:58;8.00;;;7.30;;
10277;SDS011;5184;51.376;7.148;2023-08-20T09:56:40;9.10;;;8.30;;
10277;SDS011;5184;51.376;7.148;2023-08-20T09:59:06;8.87;;;8.07;;
10277;SDS011;5184;51.376;7.148;2023-08-20T10:01:33;8.83;;;7.97;;
10277;SDS011;5184;51.376;7.148;2023-08-20T10:04:00;7.73;;;7.03;;
10277;SDS011;5184;51.376;7.148;2023-08-20T10:06:28;7.97;;;7.27;;
10277;SDS011;5184;51.376;7.148;2023-08-20T10:08:54;7.63;;;7.03;;
10277;SDS011;5184;51.376;7.148;2023-08-20T10:11:22;8.60;;;7.87;;
10277;SDS011;5184;51.376;7.148;2023-08-20T10:13:48;8.87;;;7.90;;
10277;SDS011;5184;51.376;7.148;2023-08-20T10:16:17;7.93;;;7.33;;
10277;SDS011;5184;51.376;7.148;2023-08-20T10:18:46;7.70;;;7.00;;
10277;SDS011;5184;51.376;7.148;2023-08-20T10:21:13;8.17;;;7.40;;
10277;SDS011;5184;51.376;7.148;2023-08-20T10:23:40;8.43;;;7.63;;
10277;SDS011;5184;51.376;7.148;2023-08-20T10:26:07;9.07;;;8.27;;
10277;SDS011;5184;51.376;7.148;2023-08-20T10:28:33;11.00;;;10.10;;
10277;SDS011;5184;51.376;7.148;2023-08-20T10:31:04;9.67;;;8.87;;
10277;SDS011;5184;51.376;7.148;2023-08-20T10:33:34;8.33;;;7.63;;
10277;SDS011;5184;51.376;7.148;2023-08-20T10:36:07;7.83;;;7.13;;
10277;SDS011;5184;51.376;7.148;2023-08-20T10:38:36;8.43;;;7.73;;
10277;SDS011;5184;51.376;7.148;2023-08-20T10:41:03;7.87;;;7.17;;
10277;SDS011;5184;51.376;7.148;2023-08-20T10:46:17;8.97;;;8.13;;
10277;SDS011;5184;51.376;7.148;2023-08-20T10:48:46;9.47;;;8.67;;
10277;SDS011;5184;51.376;7.148;2023-08-20T10:51:14;8.63;;;7.80;;
10277;SDS011;5184;51.376;7.148;2023-08-20T10:53:42;9.83;;;8.93;;
10277;SDS011;5184;51.376;7.148;2023-08-20T10:56:09;9.13;;;8.10;;
10277;SDS011;5184;51.376;7.148;2023-08-20T10:58:38;9.17;;;8.30;;
10277;SDS011;5184;51.376;7.148;2023-08-20T11:03:44;8.60;;;7.90;;
10277;SDS011;5184;51.376;7.148;2023-08-20T11:06:11;8.27;;;7.67;;
10277;SDS011;5184;51.376;7.148;2023-08-20T11:08:38;8.23;;;7.43;;
10277;SDS011;5184;51.376;7.148;2023-08-20T11:11:04;7.70;;;7.00;;
10277;SDS011;5184;51.376;7.148;2023-08-20T11:13:32;8.50;;;7.70;;
10277;SDS011;5184;51.376;7.148;2023-08-20T11:15:58;8.57;;;7.67;;
10277;SDS011;5184;51.376;7.148;2023-08-20T11:18:25;10.20;;;8.23;;
10277;SDS011;5184;51.376;7.148;2023-08-20T11:20:53;9.30;;;8.50;;
10277;SDS011;5184;51.376;7.148;2023-08-20T11:23:19;8.40;;;7.60;;
10277;SDS011;5184;51.376;7.148;2023-08-20T11:25:46;7.73;;;7.13;;
10277;SDS011;5184;51.376;7.148;2023-08-20T11:28:13;8.90;;;8.07;;
10277;SDS011;5184;51.376;7.148;2023-08-20T11:30:40;9.10;;;8.20;;
10277;SDS011;5184;51.376;7.148;2023-08-20T11:33:07;8.87;;;8.10;;
10277;SDS011;5184;51.376;7.148;2023-08-20T11:35:35;8.80;;;8.10;;
10277;SDS011;5184;51.376;7.148;2023-08-20T11:38:02;9.73;;;8.80;;
10277;SDS011;5184;51.376;7.148;2023-08-20T11:40:29;9.93;;;9.10;;
10277;SDS011;5184;51.376;7.148;2023-08-20T11:42:55;10.47;;;9.47;;
10277;SDS011;5184;51.376;7.148;2023-08-20T11:45:22;11.03;;;9.97;;
10277;SDS011;5184;51.376;7.148;2023-08-20T11:47:48;11.43;;;10.23;;
10277;SDS011;5184;51.376;7.148;2023-08-20T11:50:16;11.13;;;10.13;;
10277;SDS011;5184;51.376;7.148;2023-08-20T11:52:42;11.03;;;10.07;;
10277;SDS011;5184;51.376;7.148;2023-08-20T11:55:09;12.00;;;10.87;;
10277;SDS011;5184;51.376;7.148;2023-08-20T11:57:35;12.00;;;10.80;;
10277;SDS011;5184;51.376;7.148;2023-08-20T12:00:03;18.37;;;16.07;;
10277;SDS011;5184;51.376;7.148;2023-08-20T12:02:30;16.40;;;14.97;;
10277;SDS011;5184;51.376;7.148;2023-08-20T12:04:57;18.40;;;16.70;;
10277;SDS011;5184;51.376;7.148;2023-08-20T12:07:25;17.30;;;15.67;;
10277;SDS011;5184;51.376;7.148;2023-08-20T12:09:51;16.43;;;15.03;;
10277;SDS011;5184;51.376;7.148;2023-08-20T12:12:19;18.37;;;16.77;;
10277;SDS011;5184;51.376;7.148;2023-08-20T12:14:46;18.73;;;16.90;;
10277;SDS011;5184;51.376;7.148;2023-08-20T12:17:12;16.43;;;14.93;;
10277;SDS011;5184;51.376;7.148;2023-08-20T12:19:39;15.27;;;13.87;;
10277;SDS011;5184;51.376;7.148;2023-08-20T12:22:06;12.97;;;11.70;;
10277;SDS011;5184;51.376;7.148;2023-08-20T12:24:34;14.07;;;12.77;;
10277;SDS011;5184;51.376;7.148;2023-08-20T12:27:00;12.80;;;11.67;;
10277;SDS011;5184;51.376;7.148;2023-08-20T12:29:27;13.27;;;12.23;;
10277;SDS011;5184;51.376;7.148;2023-08-20T12:31:53;14.93;;;13.37;;
10277;SDS011;5184;51.376;7.148;2023-08-20T12:34:21;15.10;;;13.80;;
10277;SDS011;5184;51.376;7.148;2023-08-20T12:36:48;16.53;;;15.07;;
10277;SDS011;5184;51.376;7.148;2023-08-20T12:39:14;16.20;;;14.73;;
10277;SDS011;5184;51.376;7.148;2023-08-20T12:41:40;16.93;;;15.50;;
10277;SDS011;5184;51.376;7.148;2023-08-20T12:44:08;15.03;;;13.73;;
10277;SDS011;5184;51.376;7.148;2023-08-20T12:46:34;12.93;;;11.73;;
10277;SDS011;5184;51.376;7.148;2023-08-20T12:49:01;12.50;;;11.50;;
10277;SDS011;5184;51.376;7.148;2023-08-20T12:51:28;12.53;;;11.53;;
10277;SDS011;5184;51.376;7.148;2023-08-20T12:53:55;12.40;;;11.40;;
10277;SDS011;5184;51.376;7.148;2023-08-20T12:56:22;13.40;;;12.23;;
10277;SDS011;5184;51.376;7.148;2023-08-20T12:58:48;12.10;;;11.10;;
10277;SDS011;5184;51.376;7.148;2023-08-20T13:01:15;12.60;;;11.47;;
10277;SDS011;5184;51.376;7.148;2023-08-20T13:03:42;11.20;;;10.00;;
10277;SDS011;5184;51.376;7.148;2023-08-20T13:06:09;12.00;;;10.93;;
10277;SDS011;5184;51.376;7.148;2023-08-20T13:08:37;12.80;;;11.23;;
10277;SDS011;5184;51.376;7.148;2023-08-20T13:11:03;10.90;;;9.80;;
10277;SDS011;5184;51.376;7.148;2023-08-20T13:13:31;11.10;;;10.10;;
10277;SDS011;5184;51.376;7.148;2023-08-20T13:15:58;12.00;;;10.93;;
10277;SDS011;5184;51.376;7.148;2023-08-20T13:18:25;11.33;;;10.13;;
10277;SDS011;5184;51.376;7.148;2023-08-20T13:20:52;10.13;;;9.17;;
10277;SDS011;5184;51.376;7.148;2023-08-20T13:23:19;9.57;;;8.77;;
10277;SDS011;5184;51.376;7.148;2023-08-20T13:25:47;10.47;;;9.47;;
10277;SDS011;5184;51.376;7.148;2023-08-20T13:28:13;9.70;;;8.90;;
10277;SDS011;5184;51.376;7.148;2023-08-20T13:30:40;10.67;;;9.77;;
10277;SDS011;5184;51.376;7.148;2023-08-20T13:33:06;10.20;;;9.40;;
10277;SDS011;5184;51.376;7.148;2023-08-20T13:35:33;10.80;;;9.67;;
10277;SDS011;5184;51.376;7.148;2023-08-20T13:38:00;9.03;;;8.33;;
10277;SDS011;5184;51.376;7.148;2023-08-20T13:40:27;10.50;;;9.60;;
10277;SDS011;5184;51.376;7.148;2023-08-20T13:42:54;9.83;;;9.00;;
10277;SDS011;5184;51.376;7.148;2023-08-20T13:45:20;10.60;;;9.80;;
10277;SDS011;5184;51.376;7.148;2023-08-20T13:47:48;11.43;;;10.33;;
10277;SDS011;5184;51.376;7.148;2023-08-20T13:50:15;9.70;;;8.93;;
10277;SDS011;5184;51.376;7.148;2023-08-20T13:52:42;10.10;;;9.27;;
10277;SDS011;5184;51.376;7.148;2023-08-20T13:55:09;10.67;;;9.60;;
10277;SDS011;5184;51.376;7.148;2023-08-20T13:57:35;11.00;;;9.40;;
10277;SDS011;5184;51.376;7.148;2023-08-20T14:00:02;10.13;;;9.13;;
10277;SDS011;5184;51.376;7.148;2023-08-20T14:02:29;10.40;;;9.40;;
10277;SDS011;5184;51.376;7.148;2023-08-20T14:04:56;11.00;;;9.90;;
10277;SDS011;5184;51.376;7.148;2023-08-20T14:07:23;10.67;;;9.77;;
10277;SDS011;5184;51.376;7.148;2023-08-20T14:09:51;10.57;;;9.67;;
10277;SDS011;5184;51.376;7.148;2023-08-20T14:12:18;10.47;;;9.67;;
10277;SDS011;5184;51.376;7.148;2023-08-20T14:14:45;10.80;;;9.77;;
10277;SDS011;5184;51.376;7.148;2023-08-20T14:17:12;9.13;;;8.33;;
10277;SDS011;5184;51.376;7.148;2023-08-20T14:19:39;9.67;;;8.77;;
10277;SDS011;5184;51.376;7.148;2023-08-20T14:22:05;11.33;;;8.70;;
10277;SDS011;5184;51.376;7.148;2023-08-20T14:24:33;9.83;;;9.03;;
10277;SDS011;5184;51.376;7.148;2023-08-20T14:27:00;9.33;;;8.43;;
10277;SDS011;5184;51.376;7.148;2023-08-20T14:29:27;8.90;;;8.10;;
10277;SDS011;5184;51.376;7.148;2023-08-20T14:31:55;8.77;;;8.07;;
10277;SDS011;5184;51.376;7.148;2023-08-20T14:34:22;8.50;;;7.80;;
10277;SDS011;5184;51.376;7.148;2023-08-20T14:36:49;8.90;;;8.00;;
10277;SDS011;5184;51.376;7.148;2023-08-20T14:39:15;8.50;;;7.70;;
10277;SDS011;5184;51.376;7.148;2023-08-20T14:41:42;8.77;;;7.90;;
10277;SDS011;5184;51.376;7.148;2023-08-20T14:44:08;7.93;;;7.23;;
10277;SDS011;5184;51.376;7.148;2023-08-20T14:46:35;8.10;;;7.30;;
10277;SDS011;5184;51.376;7.148;2023-08-20T14:49:02;8.00;;;7.40;;
10277;SDS011;5184;51.376;7.148;2023-08-20T14:51:29;8.57;;;7.77;;
10277;SDS011;5184;51.376;7.148;2023-08-20T14:53:56;8.13;;;7.33;;
10277;SDS011;5184;51.376;7.148;2023-08-20T14:56:24;9.07;;;7.53;;